Izumi Maru No.2 — JD4017 — position and weather

sailwx.info

Track history (hours):
 
Tides and Currents Weather Stations Pressure Air Temp Water Temp Dewpoint Dewpoint Depression Visibility Wind Speed Wind Dir Waves Ship Positions

Izumi Maru No.2

Last reported at 2017-Dec-11 02:41 UTC. Time now 2017-Dec-14 15:11 UTC.
Position N 34°32' E 138°58'.

Length 76 m.

Type: Cargo ship. MMSI: 431007894.

Date/timePositionNaut miles runAvg speedWind from/ knotsBaromVisibWave heightAir tempDewpointWater temp
2017-Dec-11 02:41N 34°32' E 138°58'366 9.9
2017-Dec-09 13:43N 33°41' E 131°39'210.5
2017-Dec-09 13:30N 33°42' E 131°37'510.7
2017-Dec-09 13:00N 33°44' E 131°31'511.0
2017-Dec-09 12:30N 33°45' E 131°24'611.1
2017-Dec-09 12:00N 33°47' E 131°18'611.1
2017-Dec-09 11:30N 33°49' E 131°12'611.3
2017-Dec-09 11:00N 33°53' E 131°07'611.7
2017-Dec-09 10:30N 33°57' E 131°02'5 9.9
2017-Dec-09 10:00N 33°56' E 130°56'4 7.6
2017-Dec-09 09:30N 33°56' E 130°52'2 3.1
2017-Dec-09 09:00N 33°56' E 130°50'0 0.0
2017-Dec-09 08:30N 33°56' E 130°50'0 0.0
2017-Dec-09 08:00N 33°56' E 130°50'0 0.1
2017-Dec-09 07:30N 33°56' E 130°50'0 0.1
2017-Dec-09 07:00N 33°56' E 130°50'0 0.0
2017-Dec-09 06:30N 33°56' E 130°50'0 0.0
2017-Dec-09 06:00N 33°56' E 130°50'0 0.0
2017-Dec-09 05:30N 33°56' E 130°50'0 0.0
2017-Dec-09 05:00N 33°56' E 130°50'0 0.0
2017-Dec-09 04:30N 33°56' E 130°50'0 0.4
2017-Dec-09 04:01N 33°56' E 130°50'1 1.8
2017-Dec-09 03:30N 33°56' E 130°51'0 0.1
2017-Dec-09 03:00N 33°56' E 130°51'0 0.0
2017-Dec-09 02:30N 33°56' E 130°51'0 0.1
2017-Dec-09 02:00N 33°56' E 130°51'0 0.1
2017-Dec-09 01:30N 33°56' E 130°51'0 0.1
2017-Dec-09 01:00N 33°56' E 130°51'0 0.0
2017-Dec-09 00:30N 33°56' E 130°51'0 0.1
2017-Dec-09 00:00N 33°56' E 130°51'0 0.2
2017-Dec-08 23:30N 33°56' E 130°51'4 7.2
2017-Dec-08 23:00N 33°54' E 130°55'4 8.3
2017-Dec-08 22:30N 33°58' E 130°58'4 7.8
2017-Dec-08 22:00N 33°58' E 131°02'611.4
2017-Dec-08 21:30N 33°55' E 131°08'611.4
2017-Dec-08 21:00N 33°52' E 131°14'611.2
2017-Dec-08 20:30N 33°51' E 131°21'611.4
2017-Dec-08 20:01N 33°50' E 131°27'611.3
2017-Dec-08 19:30N 33°49' E 131°34'611.0
2017-Dec-08 18:56N 33°48' E 131°42'4810.4
2017-Dec-08 14:19N 34°01' E 132°37'  
2017-Dec-03 09:53N 35°02' E 139°34'410.3
2017-Dec-03 09:31N 35°04' E 139°37'611.1
2017-Dec-03 09:00N 35°08' E 139°43'611.7
2017-Dec-03 08:30N 35°13' E 139°46'611.8
2017-Dec-03 08:00N 35°18' E 139°43'611.1
2017-Dec-03 07:30N 35°24' E 139°43'611.3
2017-Dec-03 06:59N 35°28' E 139°48'1411.3
2017-Dec-03 05:44N 35°33' E 140°04'210.4
2017-Dec-03 05:31N 35°34' E 140°07'0 0.4
2017-Dec-03 04:59N 35°34' E 140°07'0 0.0
2017-Dec-03 00:47N 35°34' E 140°07'0 0.0
2017-Dec-02 23:23N 35°34' E 140°07'0 0.0
2017-Dec-02 22:59N 35°34' E 140°07'0 0.0
2017-Dec-02 21:05N 35°34' E 140°07'0 0.0
2017-Dec-02 20:53N 35°34' E 140°07'0 0.0
2017-Dec-02 20:29N 35°34' E 140°07'0 0.0
2017-Dec-02 19:59N 35°34' E 140°07'0 0.0
2017-Dec-02 19:29N 35°34' E 140°07'0 0.0
2017-Dec-02 18:59N 35°34' E 140°07'0 0.0
2017-Dec-02 18:23N 35°34' E 140°07'0 0.0
2017-Dec-02 17:59N 35°34' E 140°07'0 0.0
2017-Dec-02 17:29N 35°34' E 140°07'0 0.0
2017-Dec-02 16:59N 35°34' E 140°07'0 0.0
2017-Dec-02 16:29N 35°34' E 140°07'0 0.0
2017-Dec-02 15:59N 35°34' E 140°07'0 0.0
2017-Dec-02 15:29N 35°34' E 140°07'0 0.0
2017-Dec-02 14:53N 35°34' E 140°07'0 0.0
2017-Dec-02 13:23N 35°34' E 140°07'0 0.0
2017-Dec-02 12:59N 35°34' E 140°07'0 0.0
2017-Dec-02 12:17N 35°34' E 140°07'0 0.0
2017-Dec-02 11:59N 35°34' E 140°07'0 0.0
2017-Dec-02 11:23N 35°34' E 140°07'0 0.0
2017-Dec-01 19:34N 35°34' E 140°07'0 0.0
2017-Dec-01 19:28N 35°34' E 140°07'0 0.0
2017-Dec-01 18:58N 35°34' E 140°07'0 0.0
2017-Dec-01 18:28N 35°34' E 140°07'0 0.0
2017-Dec-01 17:58N 35°34' E 140°07'0 0.0
2017-Dec-01 17:28N 35°34' E 140°07'0 0.0
2017-Dec-01 16:55N 35°34' E 140°07'0 0.0
2017-Dec-01 16:28N 35°34' E 140°07'0 0.0
2017-Dec-01 15:58N 35°34' E 140°07'0 0.0
2017-Dec-01 15:28N 35°34' E 140°07'0 0.0
2017-Dec-01 14:58N 35°34' E 140°07'0 0.0
2017-Dec-01 13:10N 35°34' E 140°07'0 0.0
2017-Dec-01 10:40N 35°34' E 140°07'0 0.0
2017-Dec-01 10:22N 35°34' E 140°07'0 0.0
2017-Dec-01 09:58N 35°34' E 140°07'0 0.0
2017-Dec-01 09:28N 35°34' E 140°07'0 0.0
2017-Dec-01 08:58N 35°34' E 140°07'0 0.0
2017-Dec-01 07:28N 35°34' E 140°07'0 0.0
2017-Dec-01 06:58N 35°34' E 140°07'0 0.0
2017-Dec-01 06:28N 35°34' E 140°07'0 0.0
2017-Dec-01 05:55N 35°34' E 140°07'0 0.0
2017-Dec-01 05:28N 35°34' E 140°07'0 0.0
2017-Dec-01 04:58N 35°34' E 140°07'0 0.0
2017-Dec-01 04:28N 35°34' E 140°07'0 0.0
2017-Dec-01 03:58N 35°34' E 140°07'0 0.0
2017-Dec-01 03:28N 35°34' E 140°07'0 0.0
2017-Dec-01 02:58N 35°34' E 140°07'  
Track history (hours):
 
Tides and Currents Weather Stations Pressure Air Temp Water Temp Dewpoint Dewpoint Depression Visibility Wind Speed Wind Dir Waves Ship Positions

Izumi Maru No.2

Last reported at 2017-Dec-11 02:41 UTC. Time now 2017-Dec-14 15:11 UTC.
Position N 34°32' E 138°58'.

Length 76 m.

Type: Cargo ship. MMSI: 431007894.

Date/timePositionNaut miles runAvg speedWind from/ knotsBaromVisibWave heightAir tempDewpointWater temp
2017-Dec-11 02:41N 34°32' E 138°58'366 9.9
2017-Dec-09 13:43N 33°41' E 131°39'210.5
2017-Dec-09 13:30N 33°42' E 131°37'510.7
2017-Dec-09 13:00N 33°44' E 131°31'511.0
2017-Dec-09 12:30N 33°45' E 131°24'611.1
2017-Dec-09 12:00N 33°47' E 131°18'611.1
2017-Dec-09 11:30N 33°49' E 131°12'611.3
2017-Dec-09 11:00N 33°53' E 131°07'611.7
2017-Dec-09 10:30N 33°57' E 131°02'5 9.9
2017-Dec-09 10:00N 33°56' E 130°56'4 7.6
2017-Dec-09 09:30N 33°56' E 130°52'2 3.1
2017-Dec-09 09:00N 33°56' E 130°50'0 0.0
2017-Dec-09 08:30N 33°56' E 130°50'0 0.0
2017-Dec-09 08:00N 33°56' E 130°50'0 0.1
2017-Dec-09 07:30N 33°56' E 130°50'0 0.1
2017-Dec-09 07:00N 33°56' E 130°50'0 0.0
2017-Dec-09 06:30N 33°56' E 130°50'0 0.0
2017-Dec-09 06:00N 33°56' E 130°50'0 0.0
2017-Dec-09 05:30N 33°56' E 130°50'0 0.0
2017-Dec-09 05:00N 33°56' E 130°50'0 0.0
2017-Dec-09 04:30N 33°56' E 130°50'0 0.4
2017-Dec-09 04:01N 33°56' E 130°50'1 1.8
2017-Dec-09 03:30N 33°56' E 130°51'0 0.1
2017-Dec-09 03:00N 33°56' E 130°51'0 0.0
2017-Dec-09 02:30N 33°56' E 130°51'0 0.1
2017-Dec-09 02:00N 33°56' E 130°51'0 0.1
2017-Dec-09 01:30N 33°56' E 130°51'0 0.1
2017-Dec-09 01:00N 33°56' E 130°51'0 0.0
2017-Dec-09 00:30N 33°56' E 130°51'0 0.1
2017-Dec-09 00:00N 33°56' E 130°51'0 0.2
2017-Dec-08 23:30N 33°56' E 130°51'4 7.2
2017-Dec-08 23:00N 33°54' E 130°55'4 8.3
2017-Dec-08 22:30N 33°58' E 130°58'4 7.8
2017-Dec-08 22:00N 33°58' E 131°02'611.4
2017-Dec-08 21:30N 33°55' E 131°08'611.4
2017-Dec-08 21:00N 33°52' E 131°14'611.2
2017-Dec-08 20:30N 33°51' E 131°21'611.4
2017-Dec-08 20:01N 33°50' E 131°27'611.3
2017-Dec-08 19:30N 33°49' E 131°34'611.0
2017-Dec-08 18:56N 33°48' E 131°42'4810.4
2017-Dec-08 14:19N 34°01' E 132°37'  
2017-Dec-03 09:53N 35°02' E 139°34'410.3
2017-Dec-03 09:31N 35°04' E 139°37'611.1
2017-Dec-03 09:00N 35°08' E 139°43'611.7
2017-Dec-03 08:30N 35°13' E 139°46'611.8
2017-Dec-03 08:00N 35°18' E 139°43'611.1
2017-Dec-03 07:30N 35°24' E 139°43'611.3
2017-Dec-03 06:59N 35°28' E 139°48'1411.3
2017-Dec-03 05:44N 35°33' E 140°04'210.4
2017-Dec-03 05:31N 35°34' E 140°07'0 0.4
2017-Dec-03 04:59N 35°34' E 140°07'0 0.0
2017-Dec-03 00:47N 35°34' E 140°07'0 0.0
2017-Dec-02 23:23N 35°34' E 140°07'0 0.0
2017-Dec-02 22:59N 35°34' E 140°07'0 0.0
2017-Dec-02 21:05N 35°34' E 140°07'0 0.0
2017-Dec-02 20:53N 35°34' E 140°07'0 0.0
2017-Dec-02 20:29N 35°34' E 140°07'0 0.0
2017-Dec-02 19:59N 35°34' E 140°07'0 0.0
2017-Dec-02 19:29N 35°34' E 140°07'0 0.0
2017-Dec-02 18:59N 35°34' E 140°07'0 0.0
2017-Dec-02 18:23N 35°34' E 140°07'0 0.0
2017-Dec-02 17:59N 35°34' E 140°07'0 0.0
2017-Dec-02 17:29N 35°34' E 140°07'0 0.0
2017-Dec-02 16:59N 35°34' E 140°07'0 0.0
2017-Dec-02 16:29N 35°34' E 140°07'0 0.0
2017-Dec-02 15:59N 35°34' E 140°07'0 0.0
2017-Dec-02 15:29N 35°34' E 140°07'0 0.0
2017-Dec-02 14:53N 35°34' E 140°07'0 0.0
2017-Dec-02 13:23N 35°34' E 140°07'0 0.0
2017-Dec-02 12:59N 35°34' E 140°07'0 0.0
2017-Dec-02 12:17N 35°34' E 140°07'0 0.0
2017-Dec-02 11:59N 35°34' E 140°07'0 0.0
2017-Dec-02 11:23N 35°34' E 140°07'0 0.0
2017-Dec-01 19:34N 35°34' E 140°07'0 0.0
2017-Dec-01 19:28N 35°34' E 140°07'0 0.0
2017-Dec-01 18:58N 35°34' E 140°07'0 0.0
2017-Dec-01 18:28N 35°34' E 140°07'0 0.0
2017-Dec-01 17:58N 35°34' E 140°07'0 0.0
2017-Dec-01 17:28N 35°34' E 140°07'0 0.0
2017-Dec-01 16:55N 35°34' E 140°07'0 0.0
2017-Dec-01 16:28N 35°34' E 140°07'0 0.0
2017-Dec-01 15:58N 35°34' E 140°07'0 0.0
2017-Dec-01 15:28N 35°34' E 140°07'0 0.0
2017-Dec-01 14:58N 35°34' E 140°07'0 0.0
2017-Dec-01 13:10N 35°34' E 140°07'0 0.0
2017-Dec-01 10:40N 35°34' E 140°07'0 0.0
2017-Dec-01 10:22N 35°34' E 140°07'0 0.0
2017-Dec-01 09:58N 35°34' E 140°07'0 0.0
2017-Dec-01 09:28N 35°34' E 140°07'0 0.0
2017-Dec-01 08:58N 35°34' E 140°07'0 0.0
2017-Dec-01 07:28N 35°34' E 140°07'0 0.0
2017-Dec-01 06:58N 35°34' E 140°07'0 0.0
2017-Dec-01 06:28N 35°34' E 140°07'0 0.0
2017-Dec-01 05:55N 35°34' E 140°07'0 0.0
2017-Dec-01 05:28N 35°34' E 140°07'0 0.0
2017-Dec-01 04:58N 35°34' E 140°07'0 0.0
2017-Dec-01 04:28N 35°34' E 140°07'0 0.0
2017-Dec-01 03:58N 35°34' E 140°07'0 0.0
2017-Dec-01 03:28N 35°34' E 140°07'0 0.0
2017-Dec-01 02:58N 35°34' E 140°07'  

Dump ship's entire track history